sensor_id;sensor_type;location;lat;lon;timestamp;pressure;altitude;pressure_sealevel;temperature;humidity
62548;BME280;48602;45.192;5.722;2022-10-04T00:02:28;99723.28;;;16.26;85.25
62548;BME280;48602;45.192;5.722;2022-10-04T00:04:58;99730.44;;;16.25;85.27
62548;BME280;48602;45.192;5.722;2022-10-04T00:07:31;99731.44;;;16.23;85.27
62548;BME280;48602;45.192;5.722;2022-10-04T00:10:06;99735.06;;;16.22;85.04
62548;BME280;48602;45.192;5.722;2022-10-04T00:12:50;99737.78;;;16.20;85.58
62548;BME280;48602;45.192;5.722;2022-10-04T00:15:20;99737.78;;;16.20;85.61
62548;BME280;48602;45.192;5.722;2022-10-04T00:25:49;99737.00;;;16.18;86.21
62548;BME280;48602;45.192;5.722;2022-10-04T00:33:36;99734.34;;;16.18;87.04
62548;BME280;48602;45.192;5.722;2022-10-04T00:36:39;99737.88;;;16.19;86.95
62548;BME280;48602;45.192;5.722;2022-10-04T00:41:41;99736.84;;;16.21;87.41
62548;BME280;48602;45.192;5.722;2022-10-04T00:44:18;99729.72;;;16.22;87.46
62548;BME280;48602;45.192;5.722;2022-10-04T00:46:48;99732.31;;;16.23;86.91
62548;BME280;48602;45.192;5.722;2022-10-04T00:49:19;99731.25;;;16.26;87.31
62548;BME280;48602;45.192;5.722;2022-10-04T00:51:56;99728.53;;;16.27;86.86
62548;BME280;48602;45.192;5.722;2022-10-04T00:54:32;99730.25;;;16.28;86.30
62548;BME280;48602;45.192;5.722;2022-10-04T00:57:09;99725.88;;;16.27;86.48
62548;BME280;48602;45.192;5.722;2022-10-04T00:59:46;99727.59;;;16.28;86.08
62548;BME280;48602;45.192;5.722;2022-10-04T01:02:27;99731.97;;;16.29;85.94
62548;BME280;48602;45.192;5.722;2022-10-04T01:07:26;99731.38;;;16.24;86.00
62548;BME280;48602;45.192;5.722;2022-10-04T01:10:00;99725.28;;;16.22;85.84
62548;BME280;48602;45.192;5.722;2022-10-04T01:12:59;99732.47;;;16.20;85.96
62548;BME280;48602;45.192;5.722;2022-10-04T01:15:52;99723.72;;;16.18;86.19
62548;BME280;48602;45.192;5.722;2022-10-04T01:23:45;99721.13;;;16.17;86.03
62548;BME280;48602;45.192;5.722;2022-10-04T01:31:46;99721.22;;;16.15;85.83
62548;BME280;48602;45.192;5.722;2022-10-04T01:34:21;99719.56;;;16.13;85.90
62548;BME280;48602;45.192;5.722;2022-10-04T01:36:48;99728.41;;;16.13;85.92
62548;BME280;48602;45.192;5.722;2022-10-04T01:39:17;99724.03;;;16.12;85.57
62548;BME280;48602;45.192;5.722;2022-10-04T01:44:44;99713.53;;;16.09;86.24
62548;BME280;48602;45.192;5.722;2022-10-04T01:47:16;99722.50;;;16.08;85.90
62548;BME280;48602;45.192;5.722;2022-10-04T01:49:45;99713.72;;;16.06;86.06
62548;BME280;48602;45.192;5.722;2022-10-04T01:52:22;99714.75;;;16.03;86.10
62548;BME280;48602;45.192;5.722;2022-10-04T01:54:53;99709.59;;;16.00;86.20
62548;BME280;48602;45.192;5.722;2022-10-04T01:57:34;99712.31;;;15.99;86.51
62548;BME280;48602;45.192;5.722;2022-10-04T02:00:06;99707.16;;;15.96;86.36
62548;BME280;48602;45.192;5.722;2022-10-04T02:02:43;99705.63;;;15.92;86.46
62548;BME280;48602;45.192;5.722;2022-10-04T02:05:12;99705.69;;;15.90;86.75
62548;BME280;48602;45.192;5.722;2022-10-04T02:07:40;99705.84;;;15.87;86.38
62548;BME280;48602;45.192;5.722;2022-10-04T02:10:16;99698.81;;;15.86;86.83
62548;BME280;48602;45.192;5.722;2022-10-04T02:12:45;99704.22;;;15.85;86.64
62548;BME280;48602;45.192;5.722;2022-10-04T02:15:12;99698.19;;;15.81;86.74
62548;BME280;48602;45.192;5.722;2022-10-04T02:17:41;99701.78;;;15.80;86.59
62548;BME280;48602;45.192;5.722;2022-10-04T02:20:16;99701.06;;;15.77;86.98
62548;BME280;48602;45.192;5.722;2022-10-04T02:22:44;99696.81;;;15.74;86.63
62548;BME280;48602;45.192;5.722;2022-10-04T02:25:13;99690.00;;;15.68;86.54
62548;BME280;48602;45.192;5.722;2022-10-04T02:27:39;99695.47;;;15.65;85.66
62548;BME280;48602;45.192;5.722;2022-10-04T02:30:08;99688.66;;;15.60;84.87
62548;BME280;48602;45.192;5.722;2022-10-04T02:32:36;99687.16;;;15.54;84.81
62548;BME280;48602;45.192;5.722;2022-10-04T02:35:26;99680.28;;;15.50;84.63
62548;BME280;48602;45.192;5.722;2022-10-04T02:38:20;99686.59;;;15.48;84.84
62548;BME280;48602;45.192;5.722;2022-10-04T02:40:55;99681.44;;;15.45;84.75
62548;BME280;48602;45.192;5.722;2022-10-04T02:43:26;99678.09;;;15.41;84.73
62548;BME280;48602;45.192;5.722;2022-10-04T02:46:03;99679.13;;;15.39;84.48
62548;BME280;48602;45.192;5.722;2022-10-04T02:51:01;99682.94;;;15.33;84.09
62548;BME280;48602;45.192;5.722;2022-10-04T02:53:42;99684.81;;;15.31;83.95
62548;BME280;48602;45.192;5.722;2022-10-04T02:56:10;99685.75;;;15.30;83.63
62548;BME280;48602;45.192;5.722;2022-10-04T02:58:38;99688.47;;;15.28;83.64
62548;BME280;48602;45.192;5.722;2022-10-04T03:01:04;99687.59;;;15.28;83.68
62548;BME280;48602;45.192;5.722;2022-10-04T03:03:33;99688.53;;;15.27;83.77
62548;BME280;48602;45.192;5.722;2022-10-04T03:06:10;99683.31;;;15.25;83.52
62548;BME280;48602;45.192;5.722;2022-10-04T03:09:14;99685.09;;;15.25;83.64
62548;BME280;48602;45.192;5.722;2022-10-04T03:11:40;99687.75;;;15.25;83.54
62548;BME280;48602;45.192;5.722;2022-10-04T03:14:13;99691.28;;;15.25;84.20
62548;BME280;48602;45.192;5.722;2022-10-04T03:16:42;99685.03;;;15.26;84.08
62548;BME280;48602;45.192;5.722;2022-10-04T03:19:10;99689.41;;;15.27;84.01
62548;BME280;48602;45.192;5.722;2022-10-04T03:21:38;99688.47;;;15.28;83.92
62548;BME280;48602;45.192;5.722;2022-10-04T03:24:05;99692.78;;;15.31;83.73
62548;BME280;48602;45.192;5.722;2022-10-04T03:26:47;99688.25;;;15.33;83.40
62548;BME280;48602;45.192;5.722;2022-10-04T03:29:15;99687.31;;;15.34;83.14
62548;BME280;48602;45.192;5.722;2022-10-04T03:31:50;99685.44;;;15.36;82.50
62548;BME280;48602;45.192;5.722;2022-10-04T03:36:45;99688.03;;;15.38;82.29
62548;BME280;48602;45.192;5.722;2022-10-04T03:39:36;99689.75;;;15.39;82.44
62548;BME280;48602;45.192;5.722;2022-10-04T03:42:15;99688.81;;;15.40;82.00
62548;BME280;48602;45.192;5.722;2022-10-04T03:44:47;99681.78;;;15.39;82.17
62548;BME280;48602;45.192;5.722;2022-10-04T03:47:19;99686.31;;;15.36;81.87
62548;BME280;48602;45.192;5.722;2022-10-04T03:49:47;99682.84;;;15.34;81.33
62548;BME280;48602;45.192;5.722;2022-10-04T03:52:34;99687.31;;;15.34;81.42
62548;BME280;48602;45.192;5.722;2022-10-04T03:55:04;99683.00;;;15.31;81.31
62548;BME280;48602;45.192;5.722;2022-10-04T03:57:31;99692.91;;;15.28;80.59
62548;BME280;48602;45.192;5.722;2022-10-04T03:59:58;99691.19;;;15.27;80.05
62548;BME280;48602;45.192;5.722;2022-10-04T04:02:34;99688.72;;;15.24;79.77
62548;BME280;48602;45.192;5.722;2022-10-04T04:05:05;99699.56;;;15.19;80.05
62548;BME280;48602;45.192;5.722;2022-10-04T04:07:36;99693.53;;;15.16;79.70
62548;BME280;48602;45.192;5.722;2022-10-04T04:10:17;99693.69;;;15.13;80.05
62548;BME280;48602;45.192;5.722;2022-10-04T04:15:17;99694.00;;;15.07;79.76
62548;BME280;48602;45.192;5.722;2022-10-04T04:17:53;99691.56;;;15.02;79.95
62548;BME280;48602;45.192;5.722;2022-10-04T04:20:27;99701.56;;;14.97;80.23
62548;BME280;48602;45.192;5.722;2022-10-04T04:23:19;99693.81;;;14.92;80.27
62548;BME280;48602;45.192;5.722;2022-10-04T04:25:49;99698.44;;;14.89;80.12
62548;BME280;48602;45.192;5.722;2022-10-04T04:30:47;99696.06;;;14.83;80.37
62548;BME280;48602;45.192;5.722;2022-10-04T04:33:30;99697.91;;;14.81;80.06
62548;BME280;48602;45.192;5.722;2022-10-04T04:36:05;99697.19;;;14.77;80.25
62548;BME280;48602;45.192;5.722;2022-10-04T04:38:31;99705.22;;;14.76;80.45
62548;BME280;48602;45.192;5.722;2022-10-04T04:41:06;99712.44;;;14.74;80.06
62548;BME280;48602;45.192;5.722;2022-10-04T04:43:34;99701.97;;;14.71;79.80
62548;BME280;48602;45.192;5.722;2022-10-04T04:46:00;99710.13;;;14.66;80.05
62548;BME280;48602;45.192;5.722;2022-10-04T04:48:26;99714.72;;;14.62;80.32
62548;BME280;48602;45.192;5.722;2022-10-04T04:50:55;99719.22;;;14.60;80.27
62548;BME280;48602;45.192;5.722;2022-10-04T04:53:23;99714.09;;;14.57;80.14
62548;BME280;48602;45.192;5.722;2022-10-04T04:56:01;99719.47;;;14.56;80.27
62548;BME280;48602;45.192;5.722;2022-10-04T04:58:30;99722.25;;;14.53;80.25
62548;BME280;48602;45.192;5.722;2022-10-04T05:01:06;99721.47;;;14.51;80.16
62548;BME280;48602;45.192;5.722;2022-10-04T05:03:33;99726.84;;;14.49;80.56
62548;BME280;48602;45.192;5.722;2022-10-04T05:05:59;99718.16;;;14.46;80.25
62548;BME280;48602;45.192;5.722;2022-10-04T05:08:30;99726.25;;;14.43;80.55
62548;BME280;48602;45.192;5.722;2022-10-04T05:11:03;99728.16;;;14.41;80.67
62548;BME280;48602;45.192;5.722;2022-10-04T05:13:41;99731.75;;;14.38;80.73
62548;BME280;48602;45.192;5.722;2022-10-04T05:16:11;99731.97;;;14.33;81.00
62548;BME280;48602;45.192;5.722;2022-10-04T05:18:38;99733.88;;;14.30;81.13
62548;BME280;48602;45.192;5.722;2022-10-04T05:21:21;99733.09;;;14.28;81.32
62548;BME280;48602;45.192;5.722;2022-10-04T05:23:48;99728.72;;;14.27;81.01
62548;BME280;48602;45.192;5.722;2022-10-04T05:26:22;99732.28;;;14.26;80.62
62548;BME280;48602;45.192;5.722;2022-10-04T05:28:49;99729.81;;;14.23;80.41
62548;BME280;48602;45.192;5.722;2022-10-04T05:31:45;99732.53;;;14.21;80.58
62548;BME280;48602;45.192;5.722;2022-10-04T05:34:23;99724.50;;;14.23;80.86
62548;BME280;48602;45.192;5.722;2022-10-04T05:39:28;99725.94;;;14.30;80.58
62548;BME280;48602;45.192;5.722;2022-10-04T05:42:18;99727.59;;;14.32;80.54
62548;BME280;48602;45.192;5.722;2022-10-04T05:47:14;99725.72;;;14.35;80.04
62548;BME280;48602;45.192;5.722;2022-10-04T05:49:44;99727.44;;;14.36;80.08
62548;BME280;48602;45.192;5.722;2022-10-04T05:55:24;99730.81;;;14.39;79.67
62548;BME280;48602;45.192;5.722;2022-10-04T06:00:35;99728.91;;;14.43;79.09
62548;BME280;48602;45.192;5.722;2022-10-04T06:05:56;99730.63;;;14.44;79.07
62548;BME280;48602;45.192;5.722;2022-10-04T06:08:47;99736.94;;;14.41;78.41
62548;BME280;48602;45.192;5.722;2022-10-04T06:14:28;99741.41;;;14.41;78.22
62548;BME280;48602;45.192;5.722;2022-10-04T06:22:18;99741.41;;;14.41;77.91
62548;BME280;48602;45.192;5.722;2022-10-04T06:24:51;99736.13;;;14.39;78.49
62548;BME280;48602;45.192;5.722;2022-10-04T06:27:34;99745.09;;;14.37;77.89
62548;BME280;48602;45.192;5.722;2022-10-04T06:30:17;99741.72;;;14.33;78.20
62548;BME280;48602;45.192;5.722;2022-10-04T06:58:04;99762.56;;;14.61;77.25
62548;BME280;48602;45.192;5.722;2022-10-04T07:00:49;99757.03;;;14.65;76.97
62548;BME280;48602;45.192;5.722;2022-10-04T07:03:30;99756.84;;;14.70;77.14
62548;BME280;48602;45.192;5.722;2022-10-04T07:06:03;99758.50;;;14.73;77.31
62548;BME280;48602;45.192;5.722;2022-10-04T07:08:35;99762.63;;;14.78;77.27
62548;BME280;48602;45.192;5.722;2022-10-04T07:14:04;99761.34;;;14.87;77.90
62548;BME280;48602;45.192;5.722;2022-10-04T07:24:33;99765.94;;;15.02;79.51
62548;BME280;48602;45.192;5.722;2022-10-04T07:27:07;99763.81;;;15.09;79.73
62548;BME280;48602;45.192;5.722;2022-10-04T07:29:36;99759.16;;;15.14;79.90
62548;BME280;48602;45.192;5.722;2022-10-04T07:32:10;99755.28;;;15.21;79.71
62548;BME280;48602;45.192;5.722;2022-10-04T07:34:45;99757.53;;;15.28;80.06
62548;BME280;48602;45.192;5.722;2022-10-04T07:37:15;99761.63;;;15.35;79.84
62548;BME280;48602;45.192;5.722;2022-10-04T07:39:53;99761.31;;;15.42;79.80
62548;BME280;48602;45.192;5.722;2022-10-04T07:45:31;99756.34;;;15.53;79.58
62548;BME280;48602;45.192;5.722;2022-10-04T07:48:09;99758.81;;;15.57;79.33
62548;BME280;48602;45.192;5.722;2022-10-04T07:53:16;99753.88;;;15.67;79.47
62548;BME280;48602;45.192;5.722;2022-10-04T07:58:44;99751.69;;;15.75;79.71
62548;BME280;48602;45.192;5.722;2022-10-04T08:01:36;99760.28;;;15.80;79.25
62548;BME280;48602;45.192;5.722;2022-10-04T08:04:30;99754.66;;;15.86;78.98
62548;BME280;48602;45.192;5.722;2022-10-04T08:13:11;99762.78;;;16.00;79.25
62548;BME280;48602;45.192;5.722;2022-10-04T08:15:42;99761.59;;;16.06;78.69
62548;BME280;48602;45.192;5.722;2022-10-04T08:20:47;99762.84;;;16.16;78.52
62548;BME280;48602;45.192;5.722;2022-10-04T08:40:03;99769.38;;;16.59;78.08
62548;BME280;48602;45.192;5.722;2022-10-04T08:45:12;99766.00;;;16.73;76.93
62548;BME280;48602;45.192;5.722;2022-10-04T09:19:37;99761.06;;;17.44;74.07
62548;BME280;48602;45.192;5.722;2022-10-04T09:22:17;99757.19;;;17.50;73.98
62548;BME280;48602;45.192;5.722;2022-10-04T09:52:43;99741.28;;;18.22;70.94
62548;BME280;48602;45.192;5.722;2022-10-04T10:00:22;99742.84;;;18.40;70.51
62548;BME280;48602;45.192;5.722;2022-10-04T10:17:37;99740.66;;;18.75;69.87
62548;BME280;48602;45.192;5.722;2022-10-04T10:31:26;99732.75;;;19.01;68.82
62548;BME280;48602;45.192;5.722;2022-10-04T10:55:32;99733.44;;;19.44;66.35
62548;BME280;48602;45.192;5.722;2022-10-04T11:37:38;99723.75;;;20.20;60.13
62548;BME280;48602;45.192;5.722;2022-10-04T11:46:11;99711.22;;;20.34;59.18
62548;BME280;48602;45.192;5.722;2022-10-04T12:00:16;99712.16;;;20.71;59.17
62548;BME280;48602;45.192;5.722;2022-10-04T12:08:40;99702.13;;;20.85;58.87
62548;BME280;48602;45.192;5.722;2022-10-04T12:41:30;99653.25;;;21.53;56.58
62548;BME280;48602;45.192;5.722;2022-10-04T12:50:10;99652.44;;;21.75;57.34
62548;BME280;48602;45.192;5.722;2022-10-04T12:58:44;99645.88;;;21.90;57.36
62548;BME280;48602;45.192;5.722;2022-10-04T13:01:39;99632.09;;;21.95;56.23
62548;BME280;48602;45.192;5.722;2022-10-04T13:06:55;99629.56;;;22.05;56.03
62548;BME280;48602;45.192;5.722;2022-10-04T13:34:24;99603.78;;;22.36;54.48
62548;BME280;48602;45.192;5.722;2022-10-04T13:43:09;99598.06;;;22.40;53.55
62548;BME280;48602;45.192;5.722;2022-10-04T13:53:35;99588.31;;;22.82;53.14
62548;BME280;48602;45.192;5.722;2022-10-04T14:35:12;99552.97;;;25.85;47.17
62548;BME280;48602;45.192;5.722;2022-10-04T14:57:17;99544.22;;;24.29;48.82
62548;BME280;48602;45.192;5.722;2022-10-04T15:00:03;99548.41;;;24.22;47.86
62548;BME280;48602;45.192;5.722;2022-10-04T15:05:25;99550.78;;;24.15;48.08
62548;BME280;48602;45.192;5.722;2022-10-04T15:10:58;99548.16;;;24.25;47.73
62548;BME280;48602;45.192;5.722;2022-10-04T15:13:32;99553.16;;;24.39;47.97
62548;BME280;48602;45.192;5.722;2022-10-04T15:16:05;99554.03;;;24.59;47.89
62548;BME280;48602;45.192;5.722;2022-10-04T15:23:50;99555.22;;;25.24;46.79
62548;BME280;48602;45.192;5.722;2022-10-04T15:39:58;99568.03;;;25.88;46.89
62548;BME280;48602;45.192;5.722;2022-10-04T15:42:32;99569.38;;;26.01;46.79
62548;BME280;48602;45.192;5.722;2022-10-04T15:55:21;99576.78;;;26.36;45.75
62548;BME280;48602;45.192;5.722;2022-10-04T16:32:11;99578.41;;;24.38;46.83
62548;BME280;48602;45.192;5.722;2022-10-04T16:39:38;99595.69;;;23.75;48.89
62548;BME280;48602;45.192;5.722;2022-10-04T16:45:25;99596.09;;;23.28;50.60
62548;BME280;48602;45.192;5.722;2022-10-04T16:47:53;99597.53;;;23.01;51.58
62548;BME280;48602;45.192;5.722;2022-10-04T17:16:15;99631.38;;;21.36;58.26
62548;BME280;48602;45.192;5.722;2022-10-04T17:21:43;99634.78;;;21.14;58.98
62548;BME280;48602;45.192;5.722;2022-10-04T17:27:15;99648.59;;;20.97;60.06
62548;BME280;48602;45.192;5.722;2022-10-04T17:30:11;99648.44;;;20.87;60.14
62548;BME280;48602;45.192;5.722;2022-10-04T17:38:26;99659.97;;;20.64;61.25
62548;BME280;48602;45.192;5.722;2022-10-04T17:41:22;99667.72;;;20.55;61.40
62548;BME280;48602;45.192;5.722;2022-10-04T17:52:30;99675.34;;;20.24;61.01
62548;BME280;48602;45.192;5.722;2022-10-04T17:55:25;99683.81;;;20.17;60.96
62548;BME280;48602;45.192;5.722;2022-10-04T17:58:12;99684.13;;;20.13;62.20
62548;BME280;48602;45.192;5.722;2022-10-04T18:00:50;99677.63;;;20.04;61.76
62548;BME280;48602;45.192;5.722;2022-10-04T18:03:50;99687.88;;;19.98;62.19
62548;BME280;48602;45.192;5.722;2022-10-04T18:09:34;99698.47;;;19.86;62.62
62548;BME280;48602;45.192;5.722;2022-10-04T18:12:21;99701.56;;;19.80;62.83
62548;BME280;48602;45.192;5.722;2022-10-04T18:17:47;99714.28;;;19.64;63.08
62548;BME280;48602;45.192;5.722;2022-10-04T18:20:21;99713.75;;;19.59;62.85
62548;BME280;48602;45.192;5.722;2022-10-04T18:22:55;99717.78;;;19.52;62.99
62548;BME280;48602;45.192;5.722;2022-10-04T18:25:23;99719.00;;;19.46;63.37
62548;BME280;48602;45.192;5.722;2022-10-04T18:30:57;99727.75;;;19.36;63.52
62548;BME280;48602;45.192;5.722;2022-10-04T18:33:42;99721.94;;;19.29;63.98
62548;BME280;48602;45.192;5.722;2022-10-04T18:36:45;99720.47;;;19.25;63.93
62548;BME280;48602;45.192;5.722;2022-10-04T18:41:41;99737.19;;;19.14;64.16
62548;BME280;48602;45.192;5.722;2022-10-04T18:44:19;99735.66;;;19.10;64.32
62548;BME280;48602;45.192;5.722;2022-10-04T18:46:46;99746.69;;;19.06;64.52
62548;BME280;48602;45.192;5.722;2022-10-04T18:49:18;99748.69;;;19.02;64.84
62548;BME280;48602;45.192;5.722;2022-10-04T18:57:31;99765.44;;;18.92;64.84
62548;BME280;48602;45.192;5.722;2022-10-04T19:00:20;99763.81;;;18.89;65.61
62548;BME280;48602;45.192;5.722;2022-10-04T19:03:29;99761.41;;;18.85;65.24
62548;BME280;48602;45.192;5.722;2022-10-04T19:16:58;99790.16;;;18.67;66.10
62548;BME280;48602;45.192;5.722;2022-10-04T19:27:31;99798.03;;;18.54;67.08
62548;BME280;48602;45.192;5.722;2022-10-04T19:35:35;99788.78;;;18.45;67.63
62548;BME280;48602;45.192;5.722;2022-10-04T19:40:44;99808.03;;;18.36;68.32
62548;BME280;48602;45.192;5.722;2022-10-04T19:43:21;99806.50;;;18.32;68.34
62548;BME280;48602;45.192;5.722;2022-10-04T19:48:48;99806.13;;;18.24;68.88
62548;BME280;48602;45.192;5.722;2022-10-04T19:54:02;99811.81;;;18.18;69.41
62548;BME280;48602;45.192;5.722;2022-10-04T19:56:35;99807.53;;;18.16;69.25
62548;BME280;48602;45.192;5.722;2022-10-04T19:59:14;99807.69;;;18.12;69.77
62548;BME280;48602;45.192;5.722;2022-10-04T20:01:41;99808.66;;;18.11;69.72
62548;BME280;48602;45.192;5.722;2022-10-04T20:04:12;99819.63;;;18.07;70.53
62548;BME280;48602;45.192;5.722;2022-10-04T20:06:58;99823.41;;;18.03;70.23
62548;BME280;48602;45.192;5.722;2022-10-04T20:12:07;99822.03;;;17.96;70.88
62548;BME280;48602;45.192;5.722;2022-10-04T20:14:50;99822.25;;;17.93;71.34
62548;BME280;48602;45.192;5.722;2022-10-04T20:17:34;99826.91;;;17.89;70.82
62548;BME280;48602;45.192;5.722;2022-10-04T20:20:00;99828.81;;;17.87;71.25
62548;BME280;48602;45.192;5.722;2022-10-04T20:22:27;99831.56;;;17.86;71.48
62548;BME280;48602;45.192;5.722;2022-10-04T20:24:53;99833.53;;;17.82;71.62
62548;BME280;48602;45.192;5.722;2022-10-04T20:34:55;99848.53;;;17.69;72.14
62548;BME280;48602;45.192;5.722;2022-10-04T20:45:42;99871.56;;;17.54;72.73
62548;BME280;48602;45.192;5.722;2022-10-04T20:48:23;99877.94;;;17.52;73.33
62548;BME280;48602;45.192;5.722;2022-10-04T20:50:50;99869.25;;;17.48;73.76
62548;BME280;48602;45.192;5.722;2022-10-04T20:53:22;99884.47;;;17.46;73.90
62548;BME280;48602;45.192;5.722;2022-10-04T20:55:49;99881.13;;;17.42;73.95
62548;BME280;48602;45.192;5.722;2022-10-04T20:58:26;99890.16;;;17.40;74.21
62548;BME280;48602;45.192;5.722;2022-10-04T21:00:54;99885.84;;;17.37;74.61
62548;BME280;48602;45.192;5.722;2022-10-04T21:03:21;99887.75;;;17.35;74.75
62548;BME280;48602;45.192;5.722;2022-10-04T21:06:22;99893.06;;;17.35;75.27
62548;BME280;48602;45.192;5.722;2022-10-04T21:08:47;99900.28;;;17.33;75.41
62548;BME280;48602;45.192;5.722;2022-10-04T21:11:18;99904.75;;;17.33;75.11
62548;BME280;48602;45.192;5.722;2022-10-04T21:13:51;99909.22;;;17.32;75.46
62548;BME280;48602;45.192;5.722;2022-10-04T21:16:40;99914.63;;;17.31;75.42
62548;BME280;48602;45.192;5.722;2022-10-04T21:21:53;99916.72;;;17.26;75.54
62548;BME280;48602;45.192;5.722;2022-10-04T21:29:53;99916.25;;;17.18;75.83
62548;BME280;48602;45.192;5.722;2022-10-04T21:32:20;99918.22;;;17.14;76.06
62548;BME280;48602;45.192;5.722;2022-10-04T21:34:45;99917.44;;;17.12;76.32
62548;BME280;48602;45.192;5.722;2022-10-04T21:37:12;99914.00;;;17.10;75.97
62548;BME280;48602;45.192;5.722;2022-10-04T21:39:39;99922.09;;;17.08;76.50
62548;BME280;48602;45.192;5.722;2022-10-04T21:42:04;99925.50;;;17.10;76.76
62548;BME280;48602;45.192;5.722;2022-10-04T21:44:30;99930.09;;;17.08;76.62
62548;BME280;48602;45.192;5.722;2022-10-04T21:46:55;99927.50;;;17.07;76.63
62548;BME280;48602;45.192;5.722;2022-10-04T21:49:20;99925.78;;;17.06;76.87
62548;BME280;48602;45.192;5.722;2022-10-04T21:51:46;99933.06;;;17.02;76.85
62548;BME280;48602;45.192;5.722;2022-10-04T21:54:12;99934.09;;;17.00;76.86
62548;BME280;48602;45.192;5.722;2022-10-04T21:56:38;99931.50;;;16.98;76.83
62548;BME280;48602;45.192;5.722;2022-10-04T21:59:03;99930.72;;;16.96;77.08
62548;BME280;48602;45.192;5.722;2022-10-04T22:01:29;99934.41;;;16.94;77.42
62548;BME280;48602;45.192;5.722;2022-10-04T22:03:54;99935.47;;;16.91;77.29
62548;BME280;48602;45.192;5.722;2022-10-04T22:06:19;99934.75;;;16.88;77.32
62548;BME280;48602;45.192;5.722;2022-10-04T22:08:45;99936.72;;;16.84;77.75
62548;BME280;48602;45.192;5.722;2022-10-04T22:11:11;99941.25;;;16.82;77.76
62548;BME280;48602;45.192;5.722;2022-10-04T22:13:36;99942.34;;;16.78;77.57
62548;BME280;48602;45.192;5.722;2022-10-04T22:16:02;99948.72;;;16.76;77.94
62548;BME280;48602;45.192;5.722;2022-10-04T22:18:29;99948.00;;;16.72;77.75
62548;BME280;48602;45.192;5.722;2022-10-04T22:20:54;99952.63;;;16.68;77.86
62548;BME280;48602;45.192;5.722;2022-10-04T22:23:22;99953.66;;;16.66;77.87
62548;BME280;48602;45.192;5.722;2022-10-04T22:25:49;99954.66;;;16.63;78.13
62548;BME280;48602;45.192;5.722;2022-10-04T22:28:25;99952.22;;;16.59;78.50
62548;BME280;48602;45.192;5.722;2022-10-04T22:30:51;99955.91;;;16.56;78.64
62548;BME280;48602;45.192;5.722;2022-10-04T22:33:40;99955.13;;;16.54;78.36
62548;BME280;48602;45.192;5.722;2022-10-04T22:39:03;99960.59;;;16.51;79.12
62548;BME280;48602;45.192;5.722;2022-10-04T22:41:38;99964.19;;;16.50;78.89
62548;BME280;48602;45.192;5.722;2022-10-04T22:44:18;99963.41;;;16.48;79.45
62548;BME280;48602;45.192;5.722;2022-10-04T22:46:47;99963.47;;;16.47;79.63
62548;BME280;48602;45.192;5.722;2022-10-04T22:49:19;99967.06;;;16.46;79.43
62548;BME280;48602;45.192;5.722;2022-10-04T22:51:47;99970.69;;;16.45;79.61
62548;BME280;48602;45.192;5.722;2022-10-04T22:54:23;99970.75;;;16.43;79.71
62548;BME280;48602;45.192;5.722;2022-10-04T22:56:50;99973.50;;;16.42;79.45
62548;BME280;48602;45.192;5.722;2022-10-04T22:59:18;99983.31;;;16.41;79.16
62548;BME280;48602;45.192;5.722;2022-10-04T23:01:44;99970.06;;;16.39;78.97
62548;BME280;48602;45.192;5.722;2022-10-04T23:04:22;99965.69;;;16.38;78.86
62548;BME280;48602;45.192;5.722;2022-10-04T23:06:47;99972.00;;;16.36;78.60
62548;BME280;48602;45.192;5.722;2022-10-04T23:09:13;99964.09;;;16.34;78.79
62548;BME280;48602;45.192;5.722;2022-10-04T23:11:39;99962.38;;;16.33;79.20
62548;BME280;48602;45.192;5.722;2022-10-04T23:14:04;99968.63;;;16.32;79.15
62548;BME280;48602;45.192;5.722;2022-10-04T23:16:30;99958.22;;;16.28;79.44
62548;BME280;48602;45.192;5.722;2022-10-04T23:21:33;99957.53;;;16.24;79.60
62548;BME280;48602;45.192;5.722;2022-10-04T23:24:15;99952.28;;;16.23;79.50
62548;BME280;48602;45.192;5.722;2022-10-04T23:26:43;99954.16;;;16.21;79.48
62548;BME280;48602;45.192;5.722;2022-10-04T23:29:30;99945.31;;;16.20;79.10
62548;BME280;48602;45.192;5.722;2022-10-04T23:31:56;99937.34;;;16.20;78.75
62548;BME280;48602;45.192;5.722;2022-10-04T23:34:37;99934.66;;;16.20;78.85
62548;BME280;48602;45.192;5.722;2022-10-04T23:37:12;99943.59;;;16.19;78.42
62548;BME280;48602;45.192;5.722;2022-10-04T23:39:37;99932.88;;;16.21;78.29
62548;BME280;48602;45.192;5.722;2022-10-04T23:42:15;99937.34;;;16.20;78.24
62548;BME280;48602;45.192;5.722;2022-10-04T23:44:41;99933.81;;;16.20;78.16
62548;BME280;48602;45.192;5.722;2022-10-04T23:47:20;99932.94;;;16.19;77.79
62548;BME280;48602;45.192;5.722;2022-10-04T23:49:51;99935.69;;;16.18;78.49
62548;BME280;48602;45.192;5.722;2022-10-04T23:52:23;99937.56;;;16.16;78.22
62548;BME280;48602;45.192;5.722;2022-10-04T23:54:53;99940.34;;;16.13;78.36
62548;BME280;48602;45.192;5.722;2022-10-04T23:57:26;99944.03;;;16.10;78.40
62548;BME280;48602;45.192;5.722;2022-10-04T23:59:52;99940.59;;;16.08;78.87
